createdAt,value
2018-01-28T00:00:09.830Z,86.11
2018-01-28T00:02:39.150Z,85.64
2018-01-28T00:05:08.345Z,84.62
2018-01-28T00:07:37.382Z,84.82
2018-01-28T00:10:06.424Z,84.91
2018-01-28T00:12:35.474Z,84.89
2018-01-28T00:15:04.504Z,84.33
2018-01-28T00:17:34.531Z,84.28
2018-01-28T00:20:03.573Z,83.53
2018-01-28T00:22:33.139Z,82.31
2018-01-28T00:25:02.165Z,82.44
2018-01-28T00:27:31.210Z,82.53
2018-01-28T00:30:00.253Z,82.04
2018-01-28T00:32:29.300Z,81.84
2018-01-28T00:34:58.329Z,81.79
2018-01-28T00:37:27.373Z,81.91
2018-01-28T00:39:56.415Z,82.05
2018-01-28T00:42:25.458Z,81.90
2018-01-28T00:44:54.485Z,82.96
2018-01-28T00:47:23.614Z,82.85
2018-01-28T00:49:52.730Z,83.19
2018-01-28T00:52:21.750Z,83.21
2018-01-28T00:54:50.799Z,83.05
2018-01-28T00:57:19.825Z,82.36
2018-01-28T00:59:48.868Z,81.92
2018-01-28T01:02:17.918Z,81.94
2018-01-28T01:04:46.959Z,81.36
2018-01-28T01:07:16.014Z,80.91
2018-01-28T01:09:45.079Z,81.04
2018-01-28T01:12:14.113Z,80.33
2018-01-28T01:14:43.154Z,80.64
2018-01-28T01:17:12.207Z,80.60
2018-01-28T01:19:41.249Z,79.27
2018-01-28T01:22:10.305Z,79.58
2018-01-28T01:24:39.406Z,79.85
2018-01-28T01:27:08.420Z,79.97
2018-01-28T01:29:37.597Z,79.55
2018-01-28T01:32:06.609Z,79.28
2018-01-28T01:34:35.642Z,79.15
2018-01-28T01:37:04.693Z,78.89
2018-01-28T01:39:33.729Z,78.52
2018-01-28T01:42:02.773Z,77.77
2018-01-28T01:44:31.886Z,78.71
2018-01-28T01:47:00.977Z,79.21
2018-01-28T01:49:35.806Z,78.45
2018-01-28T01:52:04.838Z,78.55
2018-01-28T01:54:33.876Z,78.93
2018-01-28T01:57:02.916Z,78.19
2018-01-28T01:59:31.950Z,76.11
2018-01-28T02:02:00.996Z,75.98
2018-01-28T02:07:05.281Z,76.76
2018-01-28T02:09:34.325Z,76.75
2018-01-28T02:12:03.368Z,77.27
2018-01-28T02:14:32.405Z,77.33
2018-01-28T02:17:01.445Z,77.92
2018-01-28T02:19:30.473Z,78.12
2018-01-28T02:21:59.512Z,77.79
2018-01-28T02:24:28.601Z,78.33
2018-01-28T02:26:57.645Z,77.98
2018-01-28T02:29:26.681Z,78.12
2018-01-28T02:31:55.754Z,78.17
2018-01-28T02:34:24.777Z,78.26
2018-01-28T02:36:53.814Z,79.00
2018-01-28T02:41:58.101Z,77.48
2018-01-28T02:44:27.181Z,77.20
2018-01-28T02:46:56.231Z,77.42
2018-01-28T02:49:25.268Z,77.73
2018-01-28T02:51:54.318Z,77.43
2018-01-28T02:54:23.352Z,77.58
2018-01-28T02:59:27.689Z,78.33
2018-01-28T03:01:56.702Z,78.59
2018-01-28T03:04:25.737Z,78.52
2018-01-28T03:06:54.769Z,78.77
2018-01-28T03:09:23.817Z,78.48
2018-01-28T03:11:56.390Z,79.23
2018-01-28T03:14:28.355Z,78.61
2018-01-28T03:16:57.370Z,79.33
2018-01-28T03:19:26.436Z,79.01
2018-01-28T03:21:55.446Z,79.70
2018-01-28T03:24:24.476Z,79.09
2018-01-28T03:26:53.504Z,78.77
2018-01-28T03:29:22.542Z,78.66
2018-01-28T03:31:51.584Z,78.49
2018-01-28T03:34:20.628Z,78.93
2018-01-28T03:36:49.722Z,79.16
2018-01-28T03:39:18.766Z,79.84
2018-01-28T03:41:47.820Z,79.01
2018-01-28T03:44:16.874Z,79.56
2018-01-28T03:49:21.094Z,80.56
2018-01-28T03:51:50.122Z,80.25
2018-01-28T03:54:19.150Z,79.66
2018-01-28T03:59:23.419Z,79.93
2018-01-28T04:01:52.458Z,80.68
2018-01-28T04:04:21.498Z,80.43
2018-01-28T04:06:50.525Z,80.30
2018-01-28T04:09:19.582Z,80.89
2018-01-28T04:11:48.602Z,81.31
2018-01-28T04:14:21.171Z,81.56
2018-01-28T04:16:50.185Z,81.82
2018-01-28T04:19:19.251Z,81.94
2018-01-28T04:21:48.275Z,81.82
2018-01-28T04:24:17.336Z,81.85
2018-01-28T04:26:46.367Z,82.32
2018-01-28T04:29:15.402Z,81.78
2018-01-28T04:34:19.621Z,81.51
2018-01-28T04:36:49.025Z,81.24
2018-01-28T04:39:18.095Z,81.55
2018-01-28T04:41:47.124Z,81.31
2018-01-28T04:44:16.162Z,81.34
2018-01-28T04:46:45.217Z,81.14
2018-01-28T04:49:14.257Z,81.30
2018-01-28T04:51:43.302Z,81.83
2018-01-28T04:54:12.331Z,81.77
2018-01-28T04:59:19.321Z,82.54
2018-01-28T05:01:49.241Z,82.94
2018-01-28T05:04:18.280Z,83.32
2018-01-28T05:06:47.315Z,83.02
2018-01-28T05:09:16.364Z,82.96
2018-01-28T05:11:45.402Z,83.74
2018-01-28T05:14:14.425Z,83.33
2018-01-28T05:16:43.473Z,83.47
2018-01-28T05:19:12.510Z,83.77
2018-01-28T05:21:41.557Z,83.69
2018-01-28T05:24:10.598Z,84.04
2018-01-28T05:26:39.675Z,83.55
2018-01-28T05:29:08.706Z,83.48
2018-01-28T05:31:37.773Z,83.89
2018-01-28T05:34:06.809Z,83.58
2018-01-28T05:39:11.046Z,83.27
2018-01-28T05:41:40.089Z,83.56
2018-01-28T05:44:09.125Z,83.03
2018-01-28T05:46:38.197Z,82.86
2018-01-28T05:49:07.247Z,83.05
2018-01-28T05:51:36.317Z,83.63
2018-01-28T05:54:05.337Z,83.85
2018-01-28T05:59:10.101Z,82.85
2018-01-28T06:01:39.235Z,83.29
2018-01-28T06:04:08.273Z,83.46
2018-01-28T06:06:37.309Z,83.02
2018-01-28T06:09:06.355Z,83.11
2018-01-28T06:11:35.411Z,82.89
2018-01-28T06:16:39.677Z,83.04
2018-01-28T06:19:08.725Z,83.35
2018-01-28T06:21:37.765Z,83.12
2018-01-28T06:24:06.814Z,82.81
2018-01-28T06:26:35.846Z,83.01
2018-01-28T06:29:04.893Z,83.22
2018-01-28T06:31:33.993Z,83.01
2018-01-28T06:34:03.020Z,82.38
2018-01-28T06:36:32.065Z,83.04
2018-01-28T06:39:01.118Z,82.64
2018-01-28T06:41:30.346Z,82.63
2018-01-28T06:43:59.386Z,82.48
2018-01-28T06:46:28.433Z,82.98
2018-01-28T06:51:32.662Z,82.11
2018-01-28T06:54:01.734Z,82.00
2018-01-28T06:56:30.837Z,82.92
2018-01-28T06:58:59.886Z,82.44
2018-01-28T07:01:28.918Z,82.17
2018-01-28T07:03:57.997Z,82.40
2018-01-28T07:06:27.025Z,82.17
2018-01-28T07:08:56.069Z,82.58
2018-01-28T07:11:25.114Z,81.89
2018-01-28T07:13:54.172Z,81.97
2018-01-28T07:16:23.225Z,82.32
2018-01-28T07:18:52.273Z,81.64
2018-01-28T07:21:21.305Z,81.61
2018-01-28T07:23:50.349Z,80.90
2018-01-28T07:28:54.569Z,80.38
2018-01-28T07:31:23.605Z,79.65
2018-01-28T07:33:52.769Z,79.45
2018-01-28T07:36:22.123Z,79.75
2018-01-28T07:38:51.154Z,79.56
2018-01-28T07:41:20.298Z,79.71
2018-01-28T07:46:24.517Z,78.91
2018-01-28T07:48:53.589Z,78.49
2018-01-28T07:51:22.736Z,78.47
2018-01-28T07:53:51.744Z,77.56
2018-01-28T07:56:20.795Z,78.26
2018-01-28T07:58:49.827Z,78.29
2018-01-28T08:03:54.045Z,77.67
2018-01-28T08:06:23.120Z,77.30
2018-01-28T08:08:53.898Z,77.01
2018-01-28T08:11:22.937Z,76.68
2018-01-28T08:13:53.721Z,76.88
2018-01-28T08:16:22.753Z,77.08
2018-01-28T08:18:51.809Z,75.84
2018-01-28T08:21:20.849Z,76.49
2018-01-28T08:23:49.917Z,76.12
2018-01-28T08:26:18.956Z,76.40
2018-01-28T08:28:48.745Z,76.35
2018-01-28T08:33:53.079Z,75.51
2018-01-28T08:36:23.084Z,75.25
2018-01-28T08:38:52.136Z,75.16
2018-01-28T08:41:21.177Z,74.11
2018-01-28T08:43:50.271Z,74.15
2018-01-28T08:46:19.482Z,74.33
2018-01-28T08:48:48.507Z,73.56
2018-01-28T08:51:17.558Z,73.63
2018-01-28T08:53:46.607Z,72.91
2018-01-28T08:56:15.684Z,72.96
2018-01-28T08:58:44.706Z,73.04
2018-01-28T09:01:13.755Z,71.62
2018-01-28T09:03:42.794Z,72.15
2018-01-28T09:06:11.866Z,71.15
2018-01-28T09:08:40.908Z,70.41
2018-01-28T09:11:09.965Z,69.99
2018-01-28T09:13:39.010Z,71.05
2018-01-28T09:16:08.059Z,70.77
2018-01-28T09:18:37.106Z,70.83
2018-01-28T09:21:06.149Z,70.04
2018-01-28T09:23:35.205Z,70.82
2018-01-28T09:26:04.241Z,70.58
2018-01-28T09:28:33.280Z,70.97
2018-01-28T09:31:02.341Z,68.45
2018-01-28T09:33:31.392Z,68.48
2018-01-28T09:36:00.442Z,68.79
2018-01-28T09:38:29.486Z,68.92
2018-01-28T09:40:58.531Z,68.64
2018-01-28T09:43:29.007Z,69.48
2018-01-28T09:45:58.051Z,68.62
2018-01-28T09:48:27.089Z,68.69
2018-01-28T09:53:31.321Z,70.32
2018-01-28T09:56:01.337Z,67.80
2018-01-28T09:58:32.295Z,66.29
2018-01-28T10:01:02.282Z,67.51
2018-01-28T10:03:31.345Z,66.32
2018-01-28T10:08:40.405Z,66.79
2018-01-28T10:11:09.762Z,66.42
2018-01-28T10:13:38.792Z,67.36
2018-01-28T10:16:07.846Z,65.11
2018-01-28T10:18:37.784Z,67.28
2018-01-28T10:21:06.845Z,66.96
2018-01-28T10:23:35.886Z,66.52
2018-01-28T10:26:13.546Z,65.82
2018-01-28T10:28:47.206Z,65.53
2018-01-28T10:34:05.149Z,66.50
2018-01-28T10:36:41.174Z,66.31
2018-01-28T10:39:15.652Z,65.71
2018-01-28T10:41:50.887Z,66.05
2018-01-28T10:49:02.678Z,62.06
2018-01-28T10:51:38.074Z,59.00
2018-01-28T10:54:15.035Z,59.07
2018-01-28T10:59:26.250Z,57.76
2018-01-28T11:02:01.953Z,58.34
2018-01-28T11:04:35.993Z,60.19
2018-01-28T11:07:11.397Z,57.55
2018-01-28T11:09:49.173Z,58.51
2018-01-28T11:17:46.425Z,58.13
2018-01-28T11:20:23.137Z,59.16
2018-01-28T11:28:12.156Z,57.16
2018-01-28T11:30:46.378Z,56.20
2018-01-28T11:33:22.707Z,57.29
2018-01-28T11:35:57.782Z,57.13
2018-01-28T11:38:35.690Z,57.10
2018-01-28T11:41:14.241Z,56.54
2018-01-28T11:43:51.148Z,56.35
2018-01-28T11:46:25.643Z,57.16
2018-01-28T11:49:01.412Z,57.09
2018-01-28T11:51:38.675Z,57.69
2018-01-28T11:54:14.778Z,56.83
2018-01-28T11:56:51.606Z,56.84
2018-01-28T11:59:26.556Z,58.71
2018-01-28T12:02:07.489Z,58.10
2018-01-28T12:04:43.814Z,57.83
2018-01-28T12:07:23.436Z,57.68
2018-01-28T12:10:02.123Z,58.11
2018-01-28T12:12:42.742Z,56.76
2018-01-28T12:15:19.877Z,56.40
2018-01-28T12:17:55.666Z,57.45
2018-01-28T12:20:33.871Z,57.11
2018-01-28T12:25:45.096Z,55.48
2018-01-28T12:28:20.731Z,56.26
2018-01-28T12:30:56.439Z,56.45
2018-01-28T12:33:32.995Z,56.37
2018-01-28T12:38:46.246Z,55.83
2018-01-28T12:41:24.723Z,56.96
2018-01-28T12:44:00.981Z,55.95
2018-01-28T12:46:36.022Z,56.28
2018-01-28T12:49:15.723Z,56.21
2018-01-28T12:51:51.079Z,55.72
2018-01-28T12:54:28.487Z,54.86
2018-01-28T12:57:04.501Z,54.88
2018-01-28T12:59:42.042Z,54.66
2018-01-28T13:02:16.924Z,54.87
2018-01-28T13:04:53.933Z,54.52
2018-01-28T13:07:29.596Z,54.54
2018-01-28T13:10:04.450Z,52.50
2018-01-28T13:12:40.566Z,54.09
2018-01-28T13:17:57.774Z,53.69
2018-01-28T13:20:34.603Z,53.52
2018-01-28T13:23:10.996Z,53.36
2018-01-28T13:25:48.299Z,52.74
2018-01-28T13:28:24.924Z,52.81
2018-01-28T13:30:59.866Z,54.39
2018-01-28T13:33:29.207Z,54.74
2018-01-28T13:35:58.237Z,54.70
2018-01-28T13:38:27.272Z,54.98
2018-01-28T13:40:56.332Z,55.88
2018-01-28T13:43:25.382Z,56.62
2018-01-28T13:45:54.482Z,56.82
2018-01-28T13:50:58.825Z,57.62
2018-01-28T13:53:27.898Z,58.37
2018-01-28T13:55:56.939Z,57.75
2018-01-28T13:58:26.006Z,58.59
2018-01-28T14:00:55.056Z,57.84
2018-01-28T14:03:24.098Z,58.84
2018-01-28T14:05:53.165Z,57.96
2018-01-28T14:08:22.213Z,58.18
2018-01-28T14:10:51.275Z,57.75
2018-01-28T14:13:20.333Z,58.03
2018-01-28T14:15:49.998Z,58.60
2018-01-28T14:18:21.447Z,57.94
2018-01-28T14:20:50.811Z,57.35
2018-01-28T14:23:20.208Z,58.75
2018-01-28T14:25:49.876Z,58.17
2018-01-28T14:28:19.349Z,59.05
2018-01-28T14:30:48.464Z,58.68
2018-01-28T14:33:17.523Z,58.63
2018-01-28T14:35:47.585Z,59.55
2018-01-28T14:38:16.633Z,60.82
2018-01-28T14:40:46.817Z,60.06
2018-01-28T14:43:15.841Z,58.87
2018-01-28T14:45:46.180Z,58.24
2018-01-28T14:48:15.221Z,59.64
2018-01-28T14:50:45.397Z,59.35
2018-01-28T14:53:18.735Z,59.23
2018-01-28T14:55:52.754Z,59.62
2018-01-28T14:58:25.624Z,58.21
2018-01-28T15:03:35.348Z,57.77
2018-01-28T15:08:44.242Z,56.76
2018-01-28T15:13:53.864Z,56.40
2018-01-28T15:16:28.363Z,56.36
2018-01-28T15:19:01.343Z,55.58
2018-01-28T15:21:34.214Z,57.71
2018-01-28T15:24:07.498Z,55.45
2018-01-28T15:26:40.811Z,57.05
2018-01-28T15:29:13.559Z,57.75
2018-01-28T15:31:47.061Z,57.55
2018-01-28T15:34:20.381Z,56.91
2018-01-28T15:36:54.347Z,57.29
2018-01-28T15:39:27.216Z,57.49
2018-01-28T15:42:00.028Z,57.37
2018-01-28T15:44:29.059Z,57.41
2018-01-28T15:46:58.132Z,56.86
2018-01-28T15:49:27.179Z,58.25
2018-01-28T15:54:31.409Z,54.55
2018-01-28T15:57:00.458Z,53.01
2018-01-28T15:59:29.493Z,53.47
2018-01-28T16:01:59.369Z,53.36
2018-01-28T16:04:28.398Z,54.68
2018-01-28T16:06:57.441Z,54.46
2018-01-28T16:09:26.486Z,53.42
2018-01-28T16:11:55.525Z,54.41
2018-01-28T16:16:59.805Z,55.37
2018-01-28T16:19:29.512Z,55.17
2018-01-28T16:21:58.592Z,55.69
2018-01-28T16:24:28.066Z,54.25
2018-01-28T16:26:57.168Z,53.43
2018-01-28T16:29:26.275Z,53.36
2018-01-28T16:31:55.337Z,52.24
2018-01-28T16:34:24.386Z,52.24
2018-01-28T16:36:53.426Z,50.95
2018-01-28T16:41:57.739Z,49.67
2018-01-28T16:44:26.788Z,49.54
2018-01-28T16:46:55.817Z,49.60
2018-01-28T16:52:00.057Z,50.77
2018-01-28T16:54:29.138Z,50.67
2018-01-28T16:56:58.418Z,51.47
2018-01-28T17:02:02.711Z,51.29
2018-01-28T17:04:31.738Z,52.12
2018-01-28T17:07:00.800Z,52.22
2018-01-28T17:12:05.022Z,53.71
2018-01-28T17:14:34.089Z,54.23
2018-01-28T17:17:03.197Z,54.98
2018-01-28T17:19:32.273Z,54.66
2018-01-28T17:22:01.302Z,54.91
2018-01-28T17:24:30.585Z,54.91
2018-01-28T17:26:59.638Z,55.75
2018-01-28T17:29:28.687Z,56.35
2018-01-28T17:31:57.734Z,56.63
2018-01-28T17:34:26.858Z,56.76
2018-01-28T17:36:55.900Z,57.16
2018-01-28T17:39:24.921Z,57.99
2018-01-28T17:41:53.957Z,56.95
2018-01-28T17:44:22.996Z,57.22
2018-01-28T17:46:52.052Z,57.01
2018-01-28T17:49:21.147Z,57.37
2018-01-28T17:51:50.179Z,57.36
2018-01-28T17:54:19.169Z,56.41
2018-01-28T17:56:48.276Z,56.22
2018-01-28T17:59:17.308Z,54.73
2018-01-28T18:01:46.618Z,56.14
2018-01-28T18:04:15.636Z,56.26
2018-01-28T18:06:45.815Z,55.54
2018-01-28T18:09:14.844Z,55.27
2018-01-28T18:14:19.069Z,55.16
2018-01-28T18:16:50.644Z,55.51
2018-01-28T18:19:20.560Z,55.37
2018-01-28T18:24:24.781Z,56.21
2018-01-28T18:26:53.878Z,55.47
2018-01-28T18:29:22.915Z,55.74
2018-01-28T18:31:51.951Z,55.83
2018-01-28T18:34:20.974Z,56.10
2018-01-28T18:36:50.016Z,56.95
2018-01-28T18:39:19.050Z,56.97
2018-01-28T18:41:48.082Z,57.54
2018-01-28T18:44:17.130Z,57.41
2018-01-28T18:46:46.550Z,57.84
2018-01-28T18:49:16.063Z,59.07
2018-01-28T18:51:46.027Z,58.68
2018-01-28T18:54:15.066Z,58.78
2018-01-28T18:56:44.905Z,58.34
2018-01-28T18:59:13.974Z,58.40
2018-01-28T19:01:43.448Z,58.05
2018-01-28T19:04:12.668Z,58.77
2018-01-28T19:06:41.837Z,59.11
2018-01-28T19:09:10.886Z,59.62
2018-01-28T19:11:39.905Z,60.28
2018-01-28T19:14:08.951Z,59.79
2018-01-28T19:16:38.004Z,60.25
2018-01-28T19:19:07.028Z,60.69
2018-01-28T19:21:36.061Z,61.52
2018-01-28T19:24:05.096Z,61.34
2018-01-28T19:26:34.160Z,61.70
2018-01-28T19:29:03.274Z,62.01
2018-01-28T19:31:32.297Z,62.53
2018-01-28T19:34:01.678Z,62.81
2018-01-28T19:36:30.689Z,62.84
2018-01-28T19:38:59.721Z,63.08
2018-01-28T19:41:28.753Z,63.84
2018-01-28T19:43:57.801Z,64.61
2018-01-28T19:46:26.843Z,65.82
2018-01-28T19:48:56.161Z,66.87
2018-01-28T19:54:00.505Z,67.54
2018-01-28T19:56:29.524Z,67.99
2018-01-28T19:58:58.539Z,68.62
2018-01-28T20:01:27.584Z,69.56
2018-01-28T20:03:56.608Z,69.66
2018-01-28T20:06:25.641Z,70.19
2018-01-28T20:08:54.679Z,70.67
2018-01-28T20:11:23.707Z,70.97
2018-01-28T20:13:52.749Z,71.47
2018-01-28T20:16:21.783Z,72.24
2018-01-28T20:18:51.096Z,72.87
2018-01-28T20:21:20.148Z,73.32
2018-01-28T20:23:49.212Z,73.51
2018-01-28T20:26:18.238Z,73.08
2018-01-28T20:28:48.457Z,74.58
2018-01-28T20:31:17.493Z,74.76
2018-01-28T20:33:46.545Z,75.60
2018-01-28T20:36:15.590Z,75.92
2018-01-28T20:38:44.721Z,76.67
2018-01-28T20:41:13.780Z,77.21
2018-01-28T20:43:42.837Z,77.38
2018-01-28T20:46:12.076Z,79.26
2018-01-28T20:48:41.145Z,79.50
2018-01-28T20:51:10.248Z,80.07
2018-01-28T20:53:39.299Z,79.45
2018-01-28T20:56:08.356Z,80.58
2018-01-28T20:58:37.380Z,80.82
2018-01-28T21:01:06.426Z,80.37
2018-01-28T21:03:35.452Z,80.78
2018-01-28T21:06:04.482Z,80.55
2018-01-28T21:08:33.529Z,80.83
2018-01-28T21:11:02.575Z,79.97
2018-01-28T21:13:31.614Z,80.46
2018-01-28T21:16:00.652Z,80.74
2018-01-28T21:18:29.692Z,80.06
2018-01-28T21:20:59.761Z,80.21
2018-01-28T21:23:28.769Z,79.99
2018-01-28T21:25:57.869Z,80.31
2018-01-28T21:28:26.912Z,80.11
2018-01-28T21:30:55.949Z,79.64
2018-01-28T21:33:24.985Z,79.62
2018-01-28T21:35:54.056Z,79.37
2018-01-28T21:38:23.094Z,79.40
2018-01-28T21:40:52.132Z,79.24
2018-01-28T21:43:21.166Z,79.28
2018-01-28T21:45:50.400Z,79.14
2018-01-28T21:50:54.601Z,78.70
2018-01-28T21:53:23.673Z,78.68
2018-01-28T21:55:58.110Z,78.59
2018-01-28T21:58:31.638Z,78.72
2018-01-28T22:01:06.579Z,78.95
2018-01-28T22:10:01.218Z,79.00
2018-01-28T22:12:30.236Z,79.13
2018-01-28T22:14:59.325Z,78.68
2018-01-28T22:17:28.373Z,79.02
2018-01-28T22:19:57.405Z,79.32
2018-01-28T22:22:26.439Z,79.33
2018-01-28T22:24:55.465Z,79.67
2018-01-28T22:27:24.513Z,79.84
2018-01-28T22:32:28.774Z,80.48
2018-01-28T22:34:57.846Z,80.62
2018-01-28T22:37:26.885Z,81.19
2018-01-28T22:39:55.916Z,81.37
2018-01-28T22:42:24.948Z,82.10
2018-01-28T22:44:53.995Z,81.72
2018-01-28T22:47:23.022Z,81.99
2018-01-28T22:50:00.455Z,82.32
2018-01-28T22:55:04.677Z,83.04
2018-01-28T22:57:33.818Z,83.13
2018-01-28T23:00:02.905Z,83.19
2018-01-28T23:02:31.957Z,83.01
2018-01-28T23:05:00.989Z,83.33
2018-01-28T23:07:30.073Z,83.41
2018-01-28T23:09:59.126Z,82.74
2018-01-28T23:12:28.146Z,83.92
2018-01-28T23:14:57.201Z,84.52
2018-01-28T23:17:26.265Z,84.59
2018-01-28T23:19:55.306Z,84.85
2018-01-28T23:22:24.318Z,84.51
2018-01-28T23:24:53.347Z,85.51
2018-01-28T23:27:22.380Z,84.72
2018-01-28T23:32:26.605Z,84.73
2018-01-28T23:34:55.632Z,84.82
2018-01-28T23:37:24.662Z,84.50
2018-01-28T23:39:53.690Z,84.45
2018-01-28T23:42:22.713Z,84.92
2018-01-28T23:47:27.938Z,84.59
2018-01-28T23:49:56.977Z,84.68
2018-01-28T23:52:26.009Z,84.79
2018-01-28T23:54:55.062Z,84.31
2018-01-28T23:57:24.129Z,84.83
2018-01-28T23:59:53.170Z,84.60
